Time;durP1;ratioP1;P1;durP2;ratioP2;P2;SDS_P1;SDS_P2;PMS_P1;PMS_P2;Temp;Humidity;BMP_temperature;BMP_pressure;BME280_temperature;BME280_humidity;BME280_pressure;Samples;Min_cycle;Max_cycle;Signal;HPM_P1;HPM_P2
2023/03/15 00:00:31;;;;;;;0.80;0.45;;;1.60;99.90;;;;;;5070131;28;20215;-68
2023/03/15 00:02:58;;;;;;;0.30;0.30;;;;;;;;;;5069329;28;20283;-68
2023/03/15 00:05:25;;;;;;;0.32;0.32;;;1.50;99.90;;;;;;5069680;28;20580;-69
2023/03/15 00:07:52;;;;;;;0.30;0.30;;;1.40;99.90;;;;;;5071224;28;20257;-68
2023/03/15 00:10:19;;;;;;;0.30;0.30;;;1.70;99.90;;;;;;5069127;28;20241;-68
2023/03/15 00:12:47;;;;;;;2.55;2.40;;;1.70;99.90;;;;;;5068984;28;20195;-69
2023/03/15 00:15:14;;;;;;;2.22;2.08;;;1.70;99.90;;;;;;5069324;28;20191;-68
2023/03/15 00:17:41;;;;;;;0.50;0.50;;;1.70;99.90;;;;;;5068053;28;20206;-68
2023/03/15 00:20:10;;;;;;;0.40;0.40;;;1.80;99.90;;;;;;5068015;28;20657;-69
2023/03/15 00:22:36;;;;;;;0.30;0.30;;;1.80;99.90;;;;;;5070592;28;20187;-68
2023/03/15 00:25:04;;;;;;;0.30;0.20;;;1.80;99.90;;;;;;5068959;28;20203;-69
2023/03/15 00:27:30;;;;;;;3.75;1.65;;;1.90;99.90;;;;;;5068585;28;20215;-69
2023/03/15 00:29:58;;;;;;;0.40;0.40;;;1.90;99.90;;;;;;5069251;28;20191;-68
2023/03/15 00:32:25;;;;;;;0.50;0.50;;;1.90;99.90;;;;;;5069163;28;20699;-68
2023/03/15 00:34:53;;;;;;;0.30;0.30;;;1.70;99.90;;;;;;5069216;28;20549;-68
2023/03/15 00:37:21;;;;;;;0.40;0.40;;;1.50;99.90;;;;;;5068801;28;20222;-68
2023/03/15 00:39:48;;;;;;;0.30;0.30;;;1.80;99.90;;;;;;5067898;28;20561;-69
2023/03/15 00:42:15;;;;;;;0.30;0.28;;;1.80;99.90;;;;;;5068947;28;20289;-68
2023/03/15 00:44:42;;;;;;;0.30;0.30;;;1.70;99.90;;;;;;5069547;28;20673;-68
2023/03/15 00:47:11;;;;;;;0.30;0.30;;;1.90;99.90;;;;;;5069876;28;20242;-68
2023/03/15 00:49:38;;;;;;;0.50;0.50;;;1.80;99.90;;;;;;5066799;28;20661;-68
2023/03/15 00:52:06;;;;;;;0.40;0.30;;;;;;;;;;5064727;28;20240;-69
2023/03/15 00:54:33;;;;;;;0.40;0.32;;;1.40;99.90;;;;;;5068298;28;20191;-68
2023/03/15 00:57:01;;;;;;;0.93;0.45;;;2.20;99.90;;;;;;5068314;28;20685;-68
2023/03/15 00:59:33;;;;;;;0.55;0.55;;;1.90;99.90;;;;;;5068161;28;20198;-70
2023/03/15 01:02:01;;;;;;;0.30;0.30;;;1.90;99.90;;;;;;5068453;28;20207;-68
2023/03/15 01:04:30;;;;;;;0.30;0.30;;;2.30;99.90;;;;;;5069591;28;20202;-69
2023/03/15 01:06:57;;;;;;;3.92;0.70;;;2.00;99.90;;;;;;5069415;28;20311;-69
2023/03/15 01:09:24;;;;;;;0.40;0.40;;;5.10;99.90;;;;;;5067725;28;20206;-68
2023/03/15 01:11:51;;;;;;;0.47;0.47;;;1.90;99.90;;;;;;5068499;28;20297;-68
2023/03/15 01:14:18;;;;;;;0.40;0.40;;;1.90;99.90;;;;;;5068515;28;20191;-68
2023/03/15 01:16:45;;;;;;;0.80;0.80;;;1.80;99.90;;;;;;5069698;28;20238;-68
2023/03/15 01:19:12;;;;;;;0.40;0.40;;;1.90;99.90;;;;;;5066748;28;20195;-69
2023/03/15 01:21:41;;;;;;;1.13;0.50;;;1.60;99.90;;;;;;5068390;28;20215;-68
2023/03/15 01:24:12;;;;;;;0.63;0.50;;;1.50;99.90;;;;;;5067954;28;20736;-68
2023/03/15 01:26:39;;;;;;;0.57;0.52;;;1.60;99.90;;;;;;5069163;28;20312;-68
2023/03/15 01:29:06;;;;;;;1.58;0.93;;;;;;;;;;5066104;28;20195;-69
2023/03/15 01:31:33;;;;;;;1.95;0.77;;;1.40;99.90;;;;;;5069651;28;20655;-69
2023/03/15 01:34:00;;;;;;;1.40;0.40;;;1.40;99.90;;;;;;5069443;28;20199;-68
2023/03/15 01:36:27;;;;;;;0.60;0.60;;;1.50;99.90;;;;;;5068239;28;20732;-68
2023/03/15 01:38:55;;;;;;;0.30;0.30;;;2.00;99.90;;;;;;5067454;28;20201;-68
2023/03/15 01:41:24;;;;;;;1.65;0.75;;;2.00;99.90;;;;;;5068371;28;20219;-69
2023/03/15 01:43:51;;;;;;;0.30;0.30;;;1.40;99.90;;;;;;5069090;28;20249;-68
2023/03/15 01:46:27;;;;;;;0.50;0.50;;;1.40;99.90;;;;;;5068555;28;20226;-69
2023/03/15 01:49:00;;;;;;;0.30;0.30;;;1.40;99.90;;;;;;5062749;28;20198;-68
2023/03/15 01:51:33;;;;;;;0.40;0.40;;;1.30;99.90;;;;;;5067280;28;20234;-68
2023/03/15 01:54:06;;;;;;;0.60;0.60;;;1.20;99.90;;;;;;5069037;28;20275;-68
2023/03/15 01:56:35;;;;;;;1.67;0.60;;;1.30;99.90;;;;;;5068007;28;20739;-69
2023/03/15 01:59:04;;;;;;;0.40;0.40;;;1.20;99.90;;;;;;5067381;28;20197;-68
2023/03/15 02:01:32;;;;;;;0.40;0.40;;;;;;;;;;5066185;28;20238;-69
2023/03/15 02:04:04;;;;;;;0.40;0.40;;;1.30;99.90;;;;;;5068262;28;20201;-68
2023/03/15 02:06:33;;;;;;;0.40;0.40;;;;;;;;;;5066040;28;20219;-69
2023/03/15 02:09:06;;;;;;;0.30;0.30;;;1.50;99.90;;;;;;5066979;28;20187;-68
2023/03/15 02:11:34;;;;;;;0.35;0.35;;;1.20;99.90;;;;;;5066731;28;20226;-68
2023/03/15 02:14:03;;;;;;;0.88;0.63;;;1.20;99.90;;;;;;5068609;28;20195;-68
2023/03/15 02:16:31;;;;;;;0.30;0.30;;;1.00;99.90;;;;;;5063310;28;20227;-68
2023/03/15 02:18:59;;;;;;;0.30;0.30;;;1.50;99.90;;;;;;5067149;28;20797;-68
2023/03/15 02:21:40;;;;;;;0.30;0.30;;;1.20;99.90;;;;;;5067865;28;20693;-69
2023/03/15 02:24:22;;;;;;;0.30;0.30;;;1.00;99.90;;;;;;5068644;28;20203;-66
2023/03/15 02:26:54;;;;;;;0.77;0.73;;;1.10;99.90;;;;;;5066804;28;20218;-69
2023/03/15 02:29:25;;;;;;;1.77;0.95;;;1.10;99.90;;;;;;5067333;28;20191;-69
2023/03/15 02:31:54;;;;;;;0.30;0.30;;;0.80;99.90;;;;;;5067801;28;20223;-68
2023/03/15 02:34:24;;;;;;;0.30;0.30;;;1.00;99.90;;;;;;5068230;28;20180;-68
2023/03/15 02:36:52;;;;;;;0.30;0.30;;;1.10;99.90;;;;;;5067916;28;20257;-67
2023/03/15 02:39:22;;;;;;;0.40;0.40;;;1.10;99.90;;;;;;5066712;28;21753;-67
2023/03/15 02:41:52;;;;;;;0.30;0.30;;;1.20;99.90;;;;;;5068684;28;20223;-67
2023/03/15 02:44:26;;;;;;;0.30;0.30;;;1.30;99.90;;;;;;5067936;28;20196;-68
2023/03/15 02:46:59;;;;;;;0.30;0.30;;;1.00;99.90;;;;;;5067580;28;20223;-67
2023/03/15 02:49:32;;;;;;;0.30;0.30;;;0.50;99.90;;;;;;5059714;28;20240;-67
2023/03/15 02:51:59;;;;;;;0.35;0.35;;;1.10;99.90;;;;;;5063067;28;20222;-68
2023/03/15 02:54:29;;;;;;;0.30;0.30;;;;;;;;;;5069884;28;21455;-68
2023/03/15 02:56:55;;;;;;;0.30;0.30;;;0.80;99.90;;;;;;5069267;28;20223;-68
2023/03/15 02:59:25;;;;;;;0.40;0.40;;;1.00;99.90;;;;;;5067982;28;20284;-67
2023/03/15 03:01:53;;;;;;;0.30;0.30;;;;;;;;;;5072119;28;20606;-67
2023/03/15 03:04:20;;;;;;;0.30;0.30;;;0.90;99.90;;;;;;5069633;28;20714;-67
2023/03/15 03:06:48;;;;;;;1.25;0.75;;;0.80;99.90;;;;;;5071395;28;20657;-67
2023/03/15 03:09:14;;;;;;;0.40;0.40;;;0.90;99.90;;;;;;5069969;28;20222;-67
2023/03/15 03:11:41;;;;;;;0.30;0.20;;;1.50;99.90;;;;;;5071125;28;20231;-68
2023/03/15 03:14:08;;;;;;;0.52;0.52;;;;;;;;;;5072767;28;20295;-67
2023/03/15 03:16:37;;;;;;;0.30;0.30;;;0.90;99.90;;;;;;5071251;28;20219;-67
2023/03/15 03:19:04;;;;;;;0.30;0.30;;;0.80;99.90;;;;;;5069443;28;20257;-67
2023/03/15 03:21:31;;;;;;;1.10;0.57;;;0.80;99.90;;;;;;5072043;28;20219;-67
2023/03/15 03:23:59;;;;;;;0.60;0.60;;;0.90;99.90;;;;;;5070180;28;20226;-67
2023/03/15 03:26:26;;;;;;;1.40;1.02;;;0.90;99.90;;;;;;5068790;28;20211;-67
2023/03/15 03:28:55;;;;;;;0.30;0.30;;;0.90;99.90;;;;;;5070050;28;20310;-67
2023/03/15 03:31:24;;;;;;;0.30;0.30;;;1.00;99.90;;;;;;5070563;28;20226;-67
2023/03/15 03:33:55;;;;;;;0.30;0.30;;;0.90;99.90;;;;;;5071395;28;20183;-67
2023/03/15 03:36:23;;;;;;;1.38;0.55;;;0.90;99.90;;;;;;5073006;28;20238;-67
2023/03/15 03:38:52;;;;;;;0.40;0.30;;;0.80;99.90;;;;;;5071261;28;20203;-67
2023/03/15 03:41:20;;;;;;;0.30;0.30;;;0.70;99.90;;;;;;5071976;28;20482;-67
2023/03/15 03:43:48;;;;;;;0.50;0.50;;;0.80;99.90;;;;;;5072316;28;20649;-67
2023/03/15 03:46:15;;;;;;;0.30;0.30;;;0.80;99.90;;;;;;5072118;28;20214;-67
2023/03/15 03:48:43;;;;;;;0.57;0.57;;;0.80;99.90;;;;;;5071304;28;20716;-67
2023/03/15 03:51:12;;;;;;;0.40;0.40;;;0.90;99.90;;;;;;5069369;28;20215;-67
2023/03/15 03:53:40;;;;;;;0.32;0.32;;;0.90;99.90;;;;;;5069112;28;20199;-67
2023/03/15 03:56:08;;;;;;;0.30;0.30;;;1.00;99.90;;;;;;5071786;28;20215;-67
2023/03/15 03:58:35;;;;;;;0.38;0.35;;;0.90;99.90;;;;;;5070942;28;20197;-67
2023/03/15 04:01:03;;;;;;;0.30;0.30;;;0.80;99.90;;;;;;5071928;28;20220;-67
2023/03/15 04:03:31;;;;;;;0.30;0.30;;;0.60;99.90;;;;;;5071626;28;20191;-67
2023/03/15 04:05:59;;;;;;;0.30;0.30;;;1.00;99.90;;;;;;5071195;28;20627;-67
2023/03/15 04:08:28;;;;;;;0.30;0.30;;;0.50;99.90;;;;;;5071175;28;20300;-67
2023/03/15 04:10:57;;;;;;;0.45;0.45;;;0.70;99.90;;;;;;5072148;28;20258;-67
2023/03/15 04:13:25;;;;;;;0.40;0.30;;;1.60;99.90;;;;;;5072272;28;20187;-67
2023/03/15 04:15:56;;;;;;;0.47;0.47;;;0.00;99.90;;;;;;5071628;28;20637;-67
2023/03/15 04:18:23;;;;;;;0.38;0.38;;;0.40;99.90;;;;;;5070116;28;20996;-67
2023/03/15 04:20:53;;;;;;;0.43;0.43;;;0.60;99.90;;;;;;5070922;28;20310;-67
2023/03/15 04:23:21;;;;;;;0.55;0.55;;;0.50;99.90;;;;;;5071999;28;20198;-67
2023/03/15 04:25:50;;;;;;;0.30;0.30;;;0.50;99.90;;;;;;5070672;28;20711;-67
2023/03/15 04:28:17;;;;;;;0.88;0.57;;;0.50;99.90;;;;;;5070745;28;20692;-66
2023/03/15 04:30:44;;;;;;;0.30;0.28;;;0.40;99.90;;;;;;5070748;28;20222;-67
2023/03/15 04:33:11;;;;;;;0.30;0.30;;;0.40;99.90;;;;;;5071288;28;20200;-67
2023/03/15 04:35:41;;;;;;;0.35;0.35;;;0.50;99.90;;;;;;5069591;28;20272;-67
2023/03/15 04:38:08;;;;;;;0.50;0.50;;;0.50;99.90;;;;;;5068427;28;20196;-67
2023/03/15 04:40:35;;;;;;;0.30;0.30;;;;;;;;;;5070826;28;20215;-67
2023/03/15 04:43:05;;;;;;;0.70;0.68;;;0.40;99.90;;;;;;5068735;28;20199;-67
2023/03/15 04:45:32;;;;;;;0.88;0.88;;;-0.10;99.90;;;;;;5068973;28;20227;-67
2023/03/15 04:48:00;;;;;;;0.40;0.40;;;0.50;99.90;;;;;;5068645;28;20211;-67
2023/03/15 04:50:27;;;;;;;2.70;0.68;;;0.50;99.90;;;;;;5069701;28;20215;-67
2023/03/15 04:52:54;;;;;;;0.30;0.30;;;0.70;99.90;;;;;;5065045;28;20563;-67
2023/03/15 04:55:21;;;;;;;0.40;0.40;;;1.30;99.90;;;;;;5070917;28;20195;-67
2023/03/15 04:57:48;;;;;;;0.30;0.30;;;0.70;99.90;;;;;;5070413;28;20565;-68
2023/03/15 05:00:17;;;;;;;0.50;0.50;;;0.50;99.90;;;;;;5069223;28;20666;-67
2023/03/15 05:02:46;;;;;;;0.55;0.50;;;;;;;;;;5062507;28;20200;-67
2023/03/15 05:05:13;;;;;;;0.40;0.40;;;0.40;99.90;;;;;;5070726;28;20223;-67
2023/03/15 05:07:40;;;;;;;0.55;0.55;;;0.40;99.90;;;;;;5070602;28;20198;-67
2023/03/15 05:10:07;;;;;;;0.50;0.50;;;0.50;99.90;;;;;;5068506;28;20225;-67
2023/03/15 05:12:34;;;;;;;0.40;0.40;;;;;;;;;;5068859;28;20199;-67
2023/03/15 05:15:01;;;;;;;0.40;0.40;;;;;;;;;;5070685;28;20683;-67
2023/03/15 05:17:29;;;;;;;1.17;0.95;;;0.60;99.90;;;;;;5069347;28;20199;-66
2023/03/15 05:19:56;;;;;;;0.40;0.40;;;;;;;;;;5070162;28;20199;-67
2023/03/15 05:22:24;;;;;;;0.40;0.40;;;1.20;99.90;;;;;;5065222;28;20225;-67
2023/03/15 05:24:52;;;;;;;0.60;0.60;;;0.60;99.90;;;;;;5071663;28;20256;-67
2023/03/15 05:27:28;;;;;;;0.50;0.50;;;0.50;99.90;;;;;;5065910;28;20230;-67
2023/03/15 05:29:56;;;;;;;0.82;0.82;;;;;;;;;;5065900;28;20317;-67
2023/03/15 05:32:25;;;;;;;0.88;0.88;;;;;;;;;;5067366;28;20211;-67
2023/03/15 05:34:54;;;;;;;0.30;0.30;;;0.80;99.90;;;;;;5068966;28;20215;-68
2023/03/15 05:37:21;;;;;;;0.65;0.65;;;0.70;99.90;;;;;;5070498;28;20215;-69
2023/03/15 05:39:49;;;;;;;0.43;0.43;;;;;;;;;;5068202;28;20199;-68
2023/03/15 05:42:20;;;;;;;0.55;0.55;;;1.20;99.90;;;;;;5069921;28;20306;-68
2023/03/15 05:44:48;;;;;;;0.88;0.88;;;0.80;99.90;;;;;;5070034;28;20237;-68
2023/03/15 05:47:15;;;;;;;0.65;0.65;;;0.80;99.90;;;;;;5066172;28;20226;-66
2023/03/15 05:49:42;;;;;;;0.30;0.30;;;0.80;99.90;;;;;;5066323;28;20230;-66
2023/03/15 05:52:10;;;;;;;0.30;0.30;;;0.80;99.90;;;;;;5067053;28;20296;-67
2023/03/15 05:54:39;;;;;;;0.60;0.60;;;;;;;;;;5064743;28;20192;-67
2023/03/15 05:57:06;;;;;;;0.73;0.73;;;;;;;;;;5067717;28;20208;-69
2023/03/15 05:59:33;;;;;;;0.40;0.30;;;0.70;99.90;;;;;;5065609;28;20213;-68
2023/03/15 06:02:00;;;;;;;0.30;0.30;;;0.30;99.90;;;;;;5068584;28;20215;-68
2023/03/15 06:04:27;;;;;;;0.40;0.40;;;0.60;99.90;;;;;;5068023;28;20199;-69
2023/03/15 06:06:54;;;;;;;0.30;0.30;;;;;;;;;;5066845;28;20696;-69
2023/03/15 06:09:22;;;;;;;0.50;0.50;;;1.80;99.90;;;;;;5066742;28;20231;-68
2023/03/15 06:11:49;;;;;;;0.50;0.50;;;0.80;99.90;;;;;;5067051;28;20225;-67
2023/03/15 06:14:16;;;;;;;0.40;0.40;;;0.90;99.90;;;;;;5069588;28;20211;-67
2023/03/15 06:16:43;;;;;;;0.30;0.30;;;1.20;99.90;;;;;;5063964;28;20227;-68
2023/03/15 06:19:10;;;;;;;0.30;0.30;;;;;;;;;;5066853;28;20191;-69
2023/03/15 06:21:37;;;;;;;0.30;0.30;;;0.60;99.90;;;;;;5062436;28;20226;-68
2023/03/15 06:24:05;;;;;;;0.50;0.40;;;1.10;99.90;;;;;;5069163;28;20188;-67
2023/03/15 06:26:34;;;;;;;0.50;0.50;;;0.90;99.90;;;;;;5068831;28;20211;-68
2023/03/15 06:29:01;;;;;;;2.63;1.27;;;1.60;99.90;;;;;;5070176;28;20238;-67
2023/03/15 06:31:28;;;;;;;0.88;0.45;;;1.10;99.90;;;;;;5072080;28;20222;-69
2023/03/15 06:33:54;;;;;;;0.75;0.75;;;1.00;99.90;;;;;;5071875;28;20196;-68
2023/03/15 06:36:22;;;;;;;0.30;0.30;;;1.00;99.90;;;;;;5073449;28;20230;-67
2023/03/15 06:38:49;;;;;;;0.50;0.40;;;1.00;99.90;;;;;;5072003;28;20219;-67
2023/03/15 06:41:16;;;;;;;0.30;0.30;;;1.10;99.90;;;;;;5072695;28;20211;-68
2023/03/15 06:43:44;;;;;;;0.77;0.77;;;1.30;99.90;;;;;;5073270;28;20221;-67
2023/03/15 06:46:11;;;;;;;0.73;0.73;;;;;;;;;;5071586;28;20227;-67
2023/03/15 06:48:37;;;;;;;0.30;0.30;;;1.20;99.90;;;;;;5071716;28;20222;-67
2023/03/15 06:51:05;;;;;;;0.80;0.45;;;1.30;99.90;;;;;;5070898;28;20219;-67
2023/03/15 06:53:32;;;;;;;0.75;0.73;;;1.50;99.90;;;;;;5071597;28;20191;-68
2023/03/15 06:55:59;;;;;;;0.40;0.40;;;;;;;;;;5072232;28;20219;-68
2023/03/15 06:58:26;;;;;;;0.70;0.65;;;1.90;99.90;;;;;;5070596;28;20638;-68
2023/03/15 07:00:54;;;;;;;0.30;0.30;;;2.10;99.90;;;;;;5070370;28;20225;-68
2023/03/15 07:03:22;;;;;;;0.60;0.60;;;1.80;99.90;;;;;;5072239;28;20198;-68
2023/03/15 07:05:51;;;;;;;1.02;1.02;;;;;;;;;;5071847;28;20289;-69
2023/03/15 07:08:18;;;;;;;1.67;1.58;;;2.00;99.80;;;;;;5071525;28;20191;-70
2023/03/15 07:10:45;;;;;;;0.50;0.50;;;2.00;99.90;;;;;;5056557;28;20235;-68
2023/03/15 07:13:12;;;;;;;1.25;0.50;;;2.10;99.90;;;;;;5071074;28;20204;-68
2023/03/15 07:15:39;;;;;;;0.30;0.30;;;2.00;99.90;;;;;;5069360;28;20250;-68
2023/03/15 07:18:07;;;;;;;0.30;0.30;;;2.10;99.90;;;;;;5070692;28;20219;-67
2023/03/15 07:20:34;;;;;;;0.55;0.55;;;2.20;98.90;;;;;;5071434;28;20227;-69
2023/03/15 07:23:03;;;;;;;0.30;0.30;;;3.00;99.90;;;;;;5066891;28;20662;-70
2023/03/15 07:25:33;;;;;;;0.40;0.40;;;2.50;99.90;;;;;;5070073;28;20666;-68
2023/03/15 07:28:00;;;;;;;1.63;1.42;;;2.70;99.90;;;;;;5068710;28;20206;-69
2023/03/15 07:30:27;;;;;;;0.60;0.60;;;2.60;99.90;;;;;;5069760;28;20231;-68
2023/03/15 07:32:54;;;;;;;1.63;0.63;;;2.60;99.00;;;;;;5071154;28;20188;-68
2023/03/15 07:35:22;;;;;;;0.30;0.20;;;2.90;99.90;;;;;;5070737;28;20283;-68
2023/03/15 07:37:50;;;;;;;0.45;0.45;;;2.70;98.00;;;;;;5071661;28;20579;-68
2023/03/15 07:40:17;;;;;;;1.58;0.55;;;2.70;98.10;;;;;;5067419;28;20195;-68
2023/03/15 07:42:44;;;;;;;0.50;0.43;;;2.50;99.90;;;;;;5068777;28;20205;-68
2023/03/15 07:45:17;;;;;;;1.23;1.13;;;2.80;98.40;;;;;;5070954;28;20242;-68
2023/03/15 07:47:45;;;;;;;0.55;0.45;;;2.70;97.80;;;;;;5070459;28;20691;-71
2023/03/15 07:50:12;;;;;;;0.35;0.35;;;2.90;98.50;;;;;;5069865;28;20328;-71
2023/03/15 07:52:42;;;;;;;0.40;0.30;;;2.80;98.60;;;;;;5058517;28;20275;-70
2023/03/15 07:55:09;;;;;;;0.30;0.20;;;2.90;98.60;;;;;;5070025;28;20196;-66
2023/03/15 07:57:39;;;;;;;0.40;0.30;;;3.10;98.20;;;;;;5070810;28;20187;-66
2023/03/15 08:00:08;;;;;;;0.40;0.30;;;3.10;98.20;;;;;;5070090;28;20188;-68
2023/03/15 08:02:34;;;;;;;0.65;0.50;;;3.20;97.90;;;;;;5070593;28;20198;-68
2023/03/15 08:05:01;;;;;;;0.85;0.85;;;3.30;97.90;;;;;;5071600;28;20203;-68
2023/03/15 08:07:29;;;;;;;0.30;0.25;;;3.60;99.90;;;;;;5070166;28;20261;-68
2023/03/15 08:09:57;;;;;;;1.85;0.90;;;3.80;99.90;;;;;;5068208;28;20337;-69
2023/03/15 08:12:24;;;;;;;0.40;0.40;;;3.70;97.30;;;;;;5070685;28;20301;-68
2023/03/15 08:14:51;;;;;;;0.57;0.50;;;3.70;96.90;;;;;;5070095;28;20210;-67
2023/03/15 08:17:19;;;;;;;0.30;0.30;;;3.60;99.90;;;;;;5068061;28;20341;-68
2023/03/15 08:19:46;;;;;;;1.23;1.13;;;3.70;96.70;;;;;;5069796;28;20199;-68
2023/03/15 08:22:13;;;;;;;3.17;0.82;;;4.10;99.90;;;;;;5067599;28;20216;-68
2023/03/15 08:24:40;;;;;;;3.85;1.17;;;4.70;99.90;;;;;;5068662;28;20222;-67
2023/03/15 08:27:08;;;;;;;0.73;0.73;;;4.10;96.10;;;;;;5068279;28;20223;-67
2023/03/15 08:29:36;;;;;;;1.52;1.40;;;4.30;96.00;;;;;;5068643;28;20629;-67
2023/03/15 08:32:03;;;;;;;1.42;1.33;;;4.10;95.60;;;;;;5070182;28;20211;-66
2023/03/15 08:34:31;;;;;;;0.50;0.50;;;4.30;96.10;;;;;;5070822;28;20211;-69
2023/03/15 08:36:58;;;;;;;1.10;1.10;;;4.20;95.30;;;;;;5069521;28;20219;-67
2023/03/15 08:39:25;;;;;;;0.40;0.20;;;4.60;95.20;;;;;;5068425;28;20199;-67
2023/03/15 08:41:51;;;;;;;0.40;0.30;;;5.00;95.40;;;;;;5069766;28;20230;-66
2023/03/15 08:44:19;;;;;;;0.35;0.35;;;4.60;94.30;;;;;;5070621;28;20626;-66
2023/03/15 08:46:46;;;;;;;0.40;0.28;;;4.60;94.30;;;;;;5068904;28;20215;-66
2023/03/15 08:49:13;;;;;;;3.05;1.48;;;4.60;94.00;;;;;;5068388;28;20220;-67
2023/03/15 08:51:40;;;;;;;0.55;0.55;;;;;;;;;;5066026;28;20235;-69
2023/03/15 08:54:07;;;;;;;0.85;0.75;;;5.10;99.90;;;;;;5070611;28;20211;-69
2023/03/15 08:56:34;;;;;;;0.50;0.47;;;5.00;99.90;;;;;;5070170;28;20234;-67
2023/03/15 08:59:00;;;;;;;5.13;0.88;;;5.10;92.90;;;;;;5068319;28;20203;-67
2023/03/15 09:01:29;;;;;;;0.30;0.30;;;5.30;92.90;;;;;;5062025;28;20219;-68
2023/03/15 09:03:56;;;;;;;0.30;0.25;;;5.40;99.90;;;;;;5057545;28;20191;-66
2023/03/15 09:06:23;;;;;;;1.45;1.35;;;5.10;97.50;;;;;;5069704;28;20277;-66
2023/03/15 09:08:52;;;;;;;0.75;0.75;;;5.20;91.70;;;;;;5069107;28;20291;-66
2023/03/15 09:11:19;;;;;;;0.50;0.50;;;5.30;91.10;;;;;;5069238;28;20344;-66
2023/03/15 09:13:46;;;;;;;1.40;1.33;;;5.40;99.90;;;;;;5070028;28;20751;-66
2023/03/15 09:16:13;;;;;;;0.77;0.50;;;5.40;90.80;;;;;;5068441;28;20318;-67
2023/03/15 09:18:42;;;;;;;24.45;2.40;;;5.30;99.90;;;;;;5068618;28;20197;-67
2023/03/15 09:21:09;;;;;;;0.52;0.52;;;5.40;90.60;;;;;;5069768;28;20227;-66
2023/03/15 09:23:37;;;;;;;0.40;0.22;;;5.30;89.50;;;;;;5069776;28;20538;-66
2023/03/15 09:26:03;;;;;;;7.18;0.85;;;5.10;89.00;;;;;;5069642;28;20219;-66
2023/03/15 09:28:30;;;;;;;0.60;0.40;;;5.00;90.00;;;;;;5067924;28;20210;-67
2023/03/15 09:30:57;;;;;;;0.75;0.63;;;4.70;97.30;;;;;;5068607;28;20791;-67
2023/03/15 09:33:24;;;;;;;0.75;0.43;;;4.80;85.70;;;;;;5069252;28;20207;-66
2023/03/15 09:35:52;;;;;;;2.47;1.90;;;4.80;87.90;;;;;;5069039;28;20219;-66
2023/03/15 09:38:22;;;;;;;0.75;0.75;;;4.70;99.00;;;;;;5068517;28;20188;-66
2023/03/15 09:40:50;;;;;;;0.40;0.30;;;4.80;87.10;;;;;;5068646;28;20269;-66
2023/03/15 09:43:39;;;;;;;1.15;1.08;;;4.90;88.30;;;;;;5068967;28;20275;-67
2023/03/15 09:46:18;;;;;;;0.30;0.30;;;5.10;89.00;;;;;;5068912;28;20223;-66
2023/03/15 09:48:52;;;;;;;0.80;0.73;;;5.40;90.00;;;;;;5068662;28;20219;-66
2023/03/15 09:51:31;;;;;;;0.40;0.25;;;5.20;88.70;;;;;;5065703;28;20285;-68
2023/03/15 09:54:04;;;;;;;0.30;0.30;;;5.20;95.10;;;;;;5069047;28;20201;-66
2023/03/15 09:56:35;;;;;;;0.68;0.68;;;5.40;88.90;;;;;;5068202;28;20574;-67
2023/03/15 09:59:03;;;;;;;0.85;0.82;;;5.20;86.30;;;;;;5068132;28;20688;-66
2023/03/15 10:01:32;;;;;;;0.30;0.30;;;5.60;98.10;;;;;;5068332;28;20548;-67
2023/03/15 10:04:05;;;;;;;0.80;0.40;;;5.60;89.00;;;;;;5055618;28;20241;-67
2023/03/15 10:06:34;;;;;;;0.30;0.20;;;5.50;98.40;;;;;;5068415;28;20659;-67
2023/03/15 10:09:04;;;;;;;0.63;0.63;;;5.20;86.80;;;;;;5068085;28;20196;-66
2023/03/15 10:11:38;;;;;;;0.75;0.68;;;5.30;90.00;;;;;;5068623;28;20235;-66
2023/03/15 10:14:21;;;;;;;0.40;0.40;;;5.50;89.00;;;;;;5069945;28;20199;-66
2023/03/15 10:16:50;;;;;;;5.60;0.95;;;5.60;98.10;;;;;;5067334;28;20314;-67
2023/03/15 10:19:32;;;;;;;2.15;0.90;;;5.80;97.80;;;;;;5067192;28;20629;-67
2023/03/15 10:22:07;;;;;;;0.50;0.40;;;5.70;86.30;;;;;;5068852;28;20227;-66
2023/03/15 10:24:40;;;;;;;14.70;0.95;;;5.70;85.10;;;;;;5067853;28;20203;-66
2023/03/15 10:27:18;;;;;;;1.38;1.27;;;6.10;94.10;;;;;;5068620;28;20307;-66
2023/03/15 10:29:45;;;;;;;2.40;0.47;;;6.00;84.60;;;;;;5067442;28;20226;-67
2023/03/15 10:32:17;;;;;;;2.70;0.47;;;6.00;97.30;;;;;;5068099;28;20226;-66
2023/03/15 10:34:46;;;;;;;0.47;0.40;;;6.10;83.10;;;;;;5068933;28;20245;-66
2023/03/15 10:37:15;;;;;;;0.30;0.25;;;6.00;81.50;;;;;;5068265;28;20218;-67
2023/03/15 10:39:45;;;;;;;0.40;0.40;;;6.10;81.80;;;;;;5065817;28;20210;-66
2023/03/15 10:42:28;;;;;;;0.30;0.30;;;6.20;97.20;;;;;;5068475;28;20573;-66
2023/03/15 10:44:55;;;;;;;3.13;0.82;;;6.40;99.00;;;;;;5068438;28;20199;-67
2023/03/15 10:47:23;;;;;;;1.67;0.60;;;6.50;85.50;;;;;;5066993;28;20217;-66
2023/03/15 10:49:54;;;;;;;0.30;0.30;;;6.80;85.70;;;;;;5066024;28;20220;-66
2023/03/15 10:52:34;;;;;;;0.80;0.80;;;7.80;99.80;;;;;;5066083;28;20219;-67
2023/03/15 10:55:04;;;;;;;0.60;0.60;;;7.50;98.90;;;;;;5063783;28;20204;-67
2023/03/15 10:57:35;;;;;;;0.40;0.40;;;7.60;96.30;;;;;;5063549;28;21023;-67
2023/03/15 11:00:08;;;;;;;0.50;0.40;;;7.50;78.50;;;;;;5065348;28;20632;-67
2023/03/15 11:02:36;;;;;;;0.47;0.40;;;;;;;;;;5066230;28;20215;-68
2023/03/15 11:05:16;;;;;;;0.50;0.40;;;7.50;79.00;;;;;;5067492;28;21207;-67
2023/03/15 11:07:55;;;;;;;0.32;0.32;;;7.70;95.70;;;;;;5055832;28;20637;-68
2023/03/15 11:10:24;;;;;;;0.67;0.50;;;6.90;96.10;;;;;;5067056;28;20277;-67
2023/03/15 11:12:51;;;;;;;0.30;0.20;;;6.80;94.90;;;;;;5068601;28;20625;-68
2023/03/15 11:15:18;;;;;;;0.68;0.35;;;7.10;78.40;;;;;;5071394;28;20235;-67
2023/03/15 11:17:47;;;;;;;0.82;0.73;;;6.20;90.20;;;;;;5072039;28;20198;-67
2023/03/15 11:20:29;;;;;;;0.30;0.20;;;6.10;96.60;;;;;;5071458;28;20214;-67
2023/03/15 11:22:59;;;;;;;0.45;0.30;;;6.30;95.30;;;;;;5071726;28;20696;-66
2023/03/15 11:25:30;;;;;;;0.88;0.57;;;6.30;97.30;;;;;;5071856;28;20223;-67
2023/03/15 11:27:57;;;;;;;0.90;0.50;;;6.30;95.10;;;;;;5072663;28;20196;-68
2023/03/15 11:30:29;;;;;;;0.63;0.60;;;6.10;96.10;;;;;;5070701;28;20334;-67
2023/03/15 11:32:59;;;;;;;0.30;0.20;;;6.30;76.60;;;;;;5072446;28;20187;-66
2023/03/15 11:35:32;;;;;;;0.60;0.35;;;6.30;77.40;;;;;;5071704;28;20302;-67
2023/03/15 11:38:04;;;;;;;0.40;0.20;;;6.30;77.70;;;;;;5071553;28;20290;-67
2023/03/15 11:40:34;;;;;;;0.30;0.20;;;6.40;95.60;;;;;;5068982;28;20226;-68
2023/03/15 11:43:04;;;;;;;0.55;0.45;;;5.70;90.90;;;;;;5068857;28;20201;-66
2023/03/15 11:45:37;;;;;;;0.60;0.60;;;6.10;90.80;;;;;;5071838;28;20223;-66
2023/03/15 11:48:11;;;;;;;0.30;0.20;;;6.20;79.40;;;;;;5069966;28;20195;-67
2023/03/15 11:50:38;;;;;;;0.30;0.20;;;6.50;97.50;;;;;;5055535;28;20256;-67
2023/03/15 11:53:07;;;;;;;0.30;0.20;;;6.40;81.90;;;;;;5053726;28;20200;-67
2023/03/15 11:55:34;;;;;;;0.30;0.20;;;6.40;78.80;;;;;;5056954;28;20238;-67
2023/03/15 11:58:28;;;;;;;0.70;0.68;;;6.20;75.00;;;;;;5071148;28;20211;-67
2023/03/15 12:00:56;;;;;;;0.80;0.65;;;5.80;94.30;;;;;;5065576;28;20211;-68
2023/03/15 12:03:38;;;;;;;0.30;0.20;;;6.20;76.60;;;;;;5071629;28;20215;-67
2023/03/15 12:06:12;;;;;;;0.40;0.40;;;6.30;77.60;;;;;;5071243;28;20306;-66
2023/03/15 12:08:50;;;;;;;0.30;0.20;;;6.20;72.80;;;;;;5070547;28;20201;-67
2023/03/15 12:11:39;;;;;;;0.30;0.20;;;6.20;73.70;;;;;;5069829;28;20581;-68
2023/03/15 12:14:23;;;;;;;0.30;0.20;;;6.30;75.30;;;;;;5071324;28;20744;-67
2023/03/15 12:16:49;;;;;;;0.30;0.30;;;6.40;73.50;;;;;;5070385;28;20603;-67
2023/03/15 12:19:18;;;;;;;0.47;0.47;;;6.30;70.40;;;;;;5070794;28;20206;-67
2023/03/15 12:21:50;;;;;;;0.30;0.20;;;6.30;91.40;;;;;;5068769;28;20222;-68
2023/03/15 12:24:23;;;;;;;0.45;0.30;;;6.40;73.90;;;;;;5069829;28;20195;-66
2023/03/15 12:26:58;;;;;;;1.67;0.95;;;6.40;74.30;;;;;;5068984;28;20225;-67
2023/03/15 12:29:26;;;;;;;0.52;0.40;;;6.50;74.10;;;;;;5069459;28;20190;-67
2023/03/15 12:32:04;;;;;;;0.65;0.40;;;6.60;75.70;;;;;;5068583;28;20596;-67
2023/03/15 12:34:37;;;;;;;0.57;0.40;;;6.50;91.20;;;;;;5066850;28;20195;-67
2023/03/15 12:37:08;;;;;;;0.30;0.20;;;6.60;73.30;;;;;;5069299;28;20308;-67
2023/03/15 12:39:42;;;;;;;0.30;0.30;;;6.60;73.90;;;;;;5068319;28;20557;-67
2023/03/15 12:42:14;;;;;;;0.30;0.20;;;6.60;74.10;;;;;;5067495;28;20677;-67
2023/03/15 12:44:42;;;;;;;0.65;0.50;;;6.60;72.90;;;;;;5069432;28;20203;-68
2023/03/15 12:47:10;;;;;;;0.68;0.68;;;6.60;74.70;;;;;;5070634;28;20582;-67
2023/03/15 12:49:40;;;;;;;0.35;0.35;;;6.60;73.90;;;;;;5069614;28;20196;-66
2023/03/15 12:52:27;;;;;;;0.52;0.38;;;6.60;73.70;;;;;;5068820;28;20310;-67
2023/03/15 12:55:04;;;;;;;0.30;0.20;;;6.70;73.00;;;;;;5070735;28;20200;-67
2023/03/15 12:57:36;;;;;;;0.35;0.35;;;6.60;87.30;;;;;;5070232;28;20589;-67
2023/03/15 13:00:10;;;;;;;0.30;0.30;;;6.50;73.30;;;;;;5069410;28;20195;-67
2023/03/15 13:02:44;;;;;;;2.05;0.68;;;6.40;74.70;;;;;;5069670;28;20191;-67
2023/03/15 13:05:19;;;;;;;0.30;0.30;;;6.40;75.70;;;;;;5069408;28;20206;-68
2023/03/15 13:07:57;;;;;;;0.30;0.20;;;5.80;92.10;;;;;;5070001;28;20622;-67
2023/03/15 13:10:53;;;;;;;0.30;0.20;;;6.20;77.70;;;;;;5069420;28;20305;-67
2023/03/15 13:13:55;;;;;;;0.45;0.45;;;6.20;77.40;;;;;;5063003;28;20207;-66
2023/03/15 13:16:34;;;;;;;0.40;0.32;;;6.10;77.20;;;;;;5067107;28;20236;-67